KISQ/ISQ METAR and TAF weather

Enter ICAO airport designator
Station Type Date Time Source
KISQ METAR 2019/07/18 11:35 UTC NOAA

KISQ 181135Z AUTO 16006KT 10SM SCT028 BKN040 BKN048 20/17 A2980 RMK AO2 T01960171


Station Type Date Time Source
KISQ Decoded METAR 2019/07/18 11:35 UTC NOAA

Manistique, Schoolcraft County Airport, MI, United States (KISQ) 45-58-29N 086-10-19W
Jul 18, 2019 - 07:35 AM EDT / 2019.07.18 1135 UTC
Wind: from the SSE (160 degrees) at 7 MPH (6 KT):0
Visibility: 10 mile(s):0
Sky conditions: mostly cloudy
Temperature: 67.3 F (19.6 C)
Dew Point: 62.8 F (17.1 C)
Relative Humidity: 85%
Pressure (altimeter): 29.8 in. Hg (1009 hPa)
ob: KISQ 181135Z AUTO 16006KT 10SM SCT028 BKN040 BKN048 20/17 A2980 RMK AO2 T01960171
cycle: 11

Station Type Date Time Source
KISQ TAF UTC NOAA

Error!

Example: see airport list